»·PEaware :: N1127N KAVX-KSAN

N1127N :: KAVX-KSAN

FLIGHT INFORMATION

Flight Status: Arrived
Operator: Privately registered:
United States
More flights under this callsign
Pilot: Alexander M. (19327)
Aircraft: CESSNA 550 CITATION 2/S2/BRAVO
(C550)
More flights by this aircraft type
Origin: KAVX Catalina
United States
Destination: KSAN San Diego Intl-Lindbergh
United States
More flights between these airports :: More routes between these airports
Route: SXC V208 LAX118 CARDI MZB320 MZB
File this flight plan on PilotEdge
Remarks: Pilotedge I-08 Rating...on stream! twitch.tv / allaboutflight
Altitude:
(Current/Filed)
6,000ft
Speed:
(Current/Filed)
220kts
Departed: 07-Nov-18 02:56 PM
Arrived: 07-Nov-18 03:56 PM
Distance/Time
Traveled:
74nm/1:00
Distance/Time
To Go:
Arrived

Flight Plot

Page will automatically refresh every two minutes.


Map Options




Map Legend


Flown Route
Filed Route
Departure Airport
Arrival Airport
Navaid (VOR, NDB)
Fix

Horizontal Profiles

Position Reports

Time Latitude Longitude Heading Altitude Ground
Speed
07-Nov-18 14:46 33.403112 -118.415850 33 1571ft 0kts
07-Nov-18 14:47 33.403112 -118.415850 33 1571ft 0kts
07-Nov-18 14:48 33.403112 -118.415850 33 1571ft 0kts
07-Nov-18 14:49 33.403112 -118.415850 33 1571ft 0kts
07-Nov-18 14:50 33.403112 -118.415850 33 1571ft 0kts
07-Nov-18 14:51 33.403112 -118.415850 33 1571ft 0kts
07-Nov-18 14:52 33.403112 -118.415850 33 1571ft 0kts
07-Nov-18 14:53 33.403112 -118.415850 33 1571ft 0kts
07-Nov-18 14:54 33.403501 -118.415625 55 1571ft 8kts
07-Nov-18 14:55 33.405183 -118.414739 53 1571ft 8kts
07-Nov-18 14:56 33.406031 -118.413314 53 1571ft 6kts
07-Nov-18 14:57 33.407135 -118.411469 50 1571ft 0kts
07-Nov-18 14:58 33.407147 -118.411452 50 1571ft 0kts
07-Nov-18 14:59 33.401706 -118.421325 236 1765ft 144kts
07-Nov-18 15:00 33.380343 -118.467307 248 2324ft 192kts
07-Nov-18 15:01 33.360776 -118.522120 240 2974ft 150kts
07-Nov-18 15:02 33.321735 -118.538515 182 4057ft 201kts
07-Nov-18 15:03 33.268546 -118.538325 153 6263ft 178kts
07-Nov-18 15:04 33.241101 -118.493253 91 7210ft 173kts
07-Nov-18 15:06 33.290285 -118.402591 37 11126ft 188kts
07-Nov-18 15:07 33.332177 -118.372535 30 13941ft 194kts
07-Nov-18 15:08 33.403461 -118.415156 316 1571ft 0kts
07-Nov-18 15:09 33.403461 -118.415156 316 1571ft 0kts
07-Nov-18 15:10 33.403461 -118.415156 316 1571ft 0kts
07-Nov-18 15:11 33.403461 -118.415156 316 1571ft 0kts
07-Nov-18 15:12 33.403461 -118.415156 316 1571ft 0kts
07-Nov-18 15:13 33.403773 -118.415165 44 1571ft 5kts
07-Nov-18 15:14 33.405369 -118.414439 53 1571ft 8kts
07-Nov-18 15:15 33.406827 -118.411987 55 1571ft 1kts
07-Nov-18 15:16 33.407056 -118.412295 234 1571ft 39kts
07-Nov-18 15:17 33.380573 -118.442758 181 2923ft 166kts
07-Nov-18 15:18 33.381757 -118.400354 26 4190ft 145kts
07-Nov-18 15:19 33.414099 -118.382841 21 5641ft 169kts
07-Nov-18 15:20 33.450660 -118.341483 73 7879ft 225kts
07-Nov-18 15:21 33.433160 -118.273064 147 9383ft 217kts
07-Nov-18 15:22 33.385273 -118.241177 149 10843ft 196kts
07-Nov-18 15:23 33.322480 -118.199518 150 10936ft 286kts
07-Nov-18 15:24 33.277022 -118.132286 100 10937ft 267kts
07-Nov-18 15:25 33.261220 -118.046487 101 10936ft 264kts
07-Nov-18 15:26 33.244592 -117.961614 101 10936ft 262kts
07-Nov-18 15:27 33.227833 -117.876875 101 10982ft 270kts
07-Nov-18 15:28 33.210926 -117.791915 101 10981ft 266kts
07-Nov-18 15:29 33.195528 -117.714822 102 10981ft 264kts
07-Nov-18 15:30 33.178513 -117.629932 101 10982ft 263kts
07-Nov-18 15:31 33.161522 -117.545451 101 10981ft 258kts
07-Nov-18 15:32 33.145339 -117.465369 101 10981ft 243kts
07-Nov-18 15:33 33.109435 -117.405347 151 10977ft 222kts
07-Nov-18 15:34 33.063048 -117.379172 152 10966ft 155kts
07-Nov-18 15:35 33.025095 -117.358159 152 10998ft 160kts
07-Nov-18 15:36 32.986960 -117.337269 153 10973ft 163kts
07-Nov-18 15:37 32.945982 -117.314836 153 10974ft 163kts
07-Nov-18 15:38 32.906162 -117.293086 153 10971ft 154kts
07-Nov-18 15:39 32.869696 -117.273137 153 10445ft 145kts
07-Nov-18 15:40 32.835206 -117.254389 153 9428ft 132kts
07-Nov-18 15:41 32.798536 -117.234272 153 7725ft 162kts
07-Nov-18 15:42 32.772469 -117.203790 130 6949ft 106kts
07-Nov-18 15:43 32.761297 -117.168358 94 6983ft 155kts
07-Nov-18 15:44 32.757035 -117.111455 92 6974ft 190kts
07-Nov-18 15:45 32.752401 -117.047739 92 6972ft 200kts
07-Nov-18 15:46 32.747693 -116.981775 92 6966ft 182kts
07-Nov-18 15:47 32.743889 -116.935983 93 6957ft 105kts
07-Nov-18 15:48 32.740608 -116.899732 93 6968ft 108kts
07-Nov-18 15:49 32.717149 -116.881350 172 6530ft 146kts
07-Nov-18 15:50 32.674745 -116.884379 230 5436ft 163kts
07-Nov-18 15:51 32.660890 -116.930162 278 4274ft 139kts
07-Nov-18 15:52 32.674032 -116.972319 293 3560ft 136kts
07-Nov-18 15:53 32.686068 -117.013534 299 3262ft 139kts
07-Nov-18 15:54 32.698417 -117.052503 289 2462ft 118kts
07-Nov-18 15:55 32.707487 -117.086988 289 1729ft 112kts
07-Nov-18 15:56 32.716548 -117.120774 293 1225ft 107kts
07-Nov-18 15:57 32.724052 -117.151349 290 668ft 104kts
07-Nov-18 15:58 32.731684 -117.182200 288 39ft 100kts
07-Nov-18 15:59 32.734254 -117.194804 233 22ft 1kts
07-Nov-18 16:00 32.733144 -117.191842 65 22ft 11kts
07-Nov-18 16:01 32.734334 -117.188146 103 22ft 9kts
07-Nov-18 16:02 32.735029 -117.187201 15 22ft 0kts
07-Nov-18 16:03 32.735029 -117.187201 15 22ft 0kts
07-Nov-18 16:04 32.735029 -117.187201 15 22ft 0kts
07-Nov-18 16:05 32.735029 -117.187201 15 22ft 0kts
07-Nov-18 16:06 32.735029 -117.187201 15 22ft 0kts
07-Nov-18 16:07 32.735029 -117.187201 15 22ft 0kts
07-Nov-18 16:08 32.735029 -117.187201 15 22ft 0kts
07-Nov-18 16:09 32.735029 -117.187201 15 22ft 0kts
07-Nov-18 16:10 32.735029 -117.187201 15 22ft 0kts
07-Nov-18 16:11 32.735029 -117.187201 15 22ft 0kts
07-Nov-18 16:12 32.735029 -117.187201 15 22ft 0kts
07-Nov-18 16:13 32.735029 -117.187201 15 22ft 0kts
07-Nov-18 16:14 32.735029 -117.187201 15 22ft 0kts

Navigation Log

Ident Type
1. KAVX Airport
2. SXC Navaid
3. CARDI Fix
4. MZB Navaid
5. KSAN Airport